createdAt,value
2022-08-03T00:00:26.284Z,64.54
2022-08-03T00:02:53.078Z,64.23
2022-08-03T00:05:19.777Z,64.74
2022-08-03T00:07:46.254Z,64.62
2022-08-03T00:10:15.159Z,64.75
2022-08-03T00:12:41.769Z,64.77
2022-08-03T00:15:11.218Z,64.88
2022-08-03T00:17:52.295Z,64.84
2022-08-03T00:20:23.407Z,65.06
2022-08-03T00:22:50.625Z,64.76
2022-08-03T00:25:17.904Z,65.03
2022-08-03T00:27:44.419Z,65.11
2022-08-03T00:30:11.727Z,63.97
2022-08-03T00:32:41.387Z,64.54
2022-08-03T00:35:18.246Z,64.88
2022-08-03T00:37:59.338Z,65.16
2022-08-03T00:40:26.059Z,64.67
2022-08-03T00:43:00.617Z,65.25
2022-08-03T00:45:30.085Z,65.57
2022-08-03T00:47:57.298Z,65.97
2022-08-03T00:50:25.593Z,65.45
2022-08-03T00:52:54.140Z,65.56
2022-08-03T00:55:20.758Z,66.05
2022-08-03T00:57:48.191Z,65.31
2022-08-03T01:00:17.772Z,64.87
2022-08-03T01:02:44.561Z,64.98
2022-08-03T01:05:11.305Z,65.67
2022-08-03T01:07:40.551Z,65.59
2022-08-03T01:10:16.256Z,65.30
2022-08-03T01:12:46.140Z,65.35
2022-08-03T01:15:21.759Z,65.51
2022-08-03T01:18:09.846Z,65.55
2022-08-03T01:20:40.463Z,65.36
2022-08-03T01:23:28.926Z,66.04
2022-08-03T01:26:19.916Z,65.28
2022-08-03T01:29:15.754Z,65.69
2022-08-03T01:32:58.850Z,65.30
2022-08-03T01:34:45.499Z,65.50
2022-08-03T01:37:16.375Z,66.04
2022-08-03T01:39:45.424Z,64.80
2022-08-03T01:42:14.334Z,65.13
2022-08-03T01:44:43.139Z,65.01
2022-08-03T01:47:12.030Z,65.75
2022-08-03T01:49:45.251Z,65.40
2022-08-03T01:52:17.293Z,65.23
2022-08-03T01:54:46.693Z,65.10
2022-08-03T01:57:15.130Z,65.46
2022-08-03T01:59:43.103Z,65.58
2022-08-03T02:02:28.293Z,65.51
2022-08-03T02:05:01.776Z,64.99
2022-08-03T02:07:30.259Z,65.13
2022-08-03T02:09:58.502Z,65.16
2022-08-03T02:12:26.791Z,65.71
2022-08-03T02:14:56.487Z,66.07
2022-08-03T02:17:38.768Z,65.62
2022-08-03T02:20:08.558Z,65.53
2022-08-03T02:22:36.783Z,65.67
2022-08-03T02:25:03.697Z,65.07
2022-08-03T02:27:33.079Z,64.97
2022-08-03T02:30:08.626Z,65.14
2022-08-03T02:32:37.834Z,65.77
2022-08-03T02:35:09.547Z,65.49
2022-08-03T02:37:45.095Z,64.88
2022-08-03T02:40:19.081Z,65.09
2022-08-03T02:42:47.259Z,64.68
2022-08-03T02:45:16.723Z,64.44
2022-08-03T02:47:54.373Z,64.71
2022-08-03T02:50:24.146Z,65.22
2022-08-03T02:52:51.948Z,65.33
2022-08-03T02:55:21.748Z,65.45
2022-08-03T02:57:49.937Z,65.21
2022-08-03T03:00:19.500Z,65.35
2022-08-03T03:02:58.732Z,65.11
2022-08-03T03:05:56.042Z,65.73
2022-08-03T03:08:18.025Z,65.21
2022-08-03T03:10:48.205Z,65.16
2022-08-03T03:13:16.060Z,64.33
2022-08-03T03:15:44.115Z,65.35
2022-08-03T03:18:11.410Z,65.42
2022-08-03T03:20:40.871Z,65.73
2022-08-03T03:23:09.195Z,65.53
2022-08-03T03:25:36.219Z,65.33
2022-08-03T03:28:03.839Z,65.46
2022-08-03T03:30:33.558Z,65.68
2022-08-03T03:33:00.223Z,63.96
2022-08-03T03:35:27.913Z,63.38
2022-08-03T03:37:54.649Z,64.86
2022-08-03T03:40:22.456Z,65.10
2022-08-03T03:42:50.033Z,65.42
2022-08-03T03:45:17.042Z,65.29
2022-08-03T03:47:43.659Z,64.99
2022-08-03T03:50:10.983Z,65.58
2022-08-03T03:52:37.677Z,65.41
2022-08-03T03:55:04.507Z,65.84
2022-08-03T03:57:31.091Z,65.75
2022-08-03T03:59:57.804Z,65.79
2022-08-03T04:02:24.421Z,65.75
2022-08-03T04:05:09.854Z,65.18
2022-08-03T04:08:14.481Z,65.50
2022-08-03T04:10:58.806Z,66.04
2022-08-03T04:13:30.044Z,66.30
2022-08-03T04:15:58.487Z,65.96
2022-08-03T04:18:27.951Z,65.96
2022-08-03T04:20:59.313Z,65.82
2022-08-03T04:23:28.803Z,66.25
2022-08-03T04:25:57.964Z,67.03
2022-08-03T04:28:31.387Z,67.37
2022-08-03T04:31:01.029Z,66.90
2022-08-03T04:33:32.446Z,66.43
2022-08-03T04:36:02.933Z,68.05
2022-08-03T04:38:38.936Z,68.72
2022-08-03T04:41:06.578Z,69.53
2022-08-03T04:43:34.223Z,69.81
2022-08-03T04:46:02.566Z,70.49
2022-08-03T04:48:29.355Z,71.13
2022-08-03T04:50:55.971Z,70.72
2022-08-03T04:53:22.645Z,71.33
2022-08-03T04:55:49.822Z,71.01
2022-08-03T04:58:16.323Z,71.24
2022-08-03T05:00:43.209Z,72.21
2022-08-03T05:03:23.652Z,72.62
2022-08-03T05:06:01.658Z,72.88
2022-08-03T05:08:46.190Z,74.86
2022-08-03T05:11:15.214Z,74.55
2022-08-03T05:13:41.822Z,73.60
2022-08-03T05:16:08.400Z,73.43
2022-08-03T05:18:35.961Z,72.79
2022-08-03T05:21:02.738Z,72.40
2022-08-03T05:23:29.493Z,72.15
2022-08-03T05:25:56.090Z,72.51
2022-08-03T05:28:23.031Z,72.10
2022-08-03T05:30:49.585Z,72.52
2022-08-03T05:33:16.112Z,71.95
2022-08-03T05:35:57.366Z,71.79
2022-08-03T05:38:34.399Z,71.19
2022-08-03T05:41:21.325Z,70.33
2022-08-03T05:43:49.765Z,70.36
2022-08-03T05:46:16.339Z,69.42
2022-08-03T05:48:43.020Z,68.97
2022-08-03T05:51:11.685Z,68.69
2022-08-03T05:53:39.656Z,66.42
2022-08-03T05:56:13.746Z,66.33
2022-08-03T05:58:43.896Z,66.17
2022-08-03T06:01:10.497Z,66.38
2022-08-03T06:03:37.049Z,64.14
2022-08-03T06:06:03.686Z,60.81
2022-08-03T06:08:30.345Z,58.28
2022-08-03T06:10:56.878Z,56.28
2022-08-03T06:13:23.404Z,51.94
2022-08-03T06:15:49.954Z,49.16
2022-08-03T06:18:16.465Z,46.09
2022-08-03T06:20:43.338Z,46.67
2022-08-03T06:23:16.199Z,50.05
2022-08-03T06:25:44.598Z,50.31
2022-08-03T06:28:35.329Z,50.38
2022-08-03T06:30:59.033Z,49.71
2022-08-03T06:33:26.532Z,49.01
2022-08-03T06:36:13.066Z,47.44
2022-08-03T06:38:39.607Z,46.15
2022-08-03T06:41:06.135Z,43.53
2022-08-03T06:43:35.994Z,46.37
2022-08-03T06:46:02.674Z,46.08
2022-08-03T06:48:29.192Z,44.93
2022-08-03T06:50:55.740Z,44.90
2022-08-03T06:53:22.630Z,43.94
2022-08-03T06:55:54.187Z,44.21
2022-08-03T06:58:21.288Z,43.89
2022-08-03T07:00:48.075Z,45.62
2022-08-03T07:03:15.138Z,46.28
2022-08-03T07:05:43.547Z,46.25
2022-08-03T07:08:10.276Z,45.09
2022-08-03T07:10:37.200Z,45.43
2022-08-03T07:13:04.834Z,45.12
2022-08-03T07:15:54.600Z,45.54
2022-08-03T07:18:29.087Z,45.10
2022-08-03T07:20:57.528Z,44.36
2022-08-03T07:23:24.196Z,45.35
2022-08-03T07:25:50.957Z,45.69
2022-08-03T07:28:17.767Z,45.97
2022-08-03T07:30:44.408Z,45.61
2022-08-03T07:33:11.145Z,45.36
2022-08-03T07:35:37.791Z,44.88
2022-08-03T07:38:04.305Z,43.99
2022-08-03T07:40:31.880Z,43.58
2022-08-03T07:42:59.836Z,45.07
2022-08-03T07:45:26.910Z,43.35
2022-08-03T07:47:54.366Z,43.12
2022-08-03T07:50:21.777Z,42.83
2022-08-03T07:52:49.693Z,43.03
2022-08-03T07:55:17.844Z,41.96
2022-08-03T07:57:44.851Z,40.63
2022-08-03T08:00:19.227Z,42.02
2022-08-03T08:02:46.000Z,40.84
2022-08-03T08:05:13.115Z,41.38
2022-08-03T08:07:40.369Z,40.78
2022-08-03T08:10:09.991Z,41.04
2022-08-03T08:12:38.622Z,40.77
2022-08-03T08:15:05.944Z,40.73
2022-08-03T08:17:41.943Z,40.64
2022-08-03T08:20:09.488Z,39.89
2022-08-03T08:22:35.999Z,39.52
2022-08-03T08:25:04.409Z,39.98
2022-08-03T08:28:22.220Z,40.37
2022-08-03T08:30:20.179Z,39.55
2022-08-03T08:32:47.722Z,39.12
2022-08-03T08:35:14.748Z,39.81
2022-08-03T08:37:41.685Z,39.44
2022-08-03T08:40:09.415Z,38.53
2022-08-03T08:42:57.587Z,38.42
2022-08-03T08:45:25.259Z,36.79
2022-08-03T08:47:55.678Z,37.29
2022-08-03T08:50:27.690Z,38.14
2022-08-03T08:52:55.232Z,37.13
2022-08-03T08:55:23.388Z,37.09
2022-08-03T08:57:53.098Z,37.51
2022-08-03T09:00:19.670Z,36.87
2022-08-03T09:02:46.983Z,36.00
2022-08-03T09:05:15.505Z,35.54
2022-08-03T09:07:43.401Z,35.34
2022-08-03T09:10:14.855Z,34.29
2022-08-03T09:12:47.102Z,35.20
2022-08-03T09:15:17.828Z,34.36
2022-08-03T09:17:47.660Z,35.71
2022-08-03T09:20:17.636Z,36.20
2022-08-03T09:23:19.139Z,34.32
2022-08-03T09:25:59.838Z,35.59
2022-08-03T09:28:56.556Z,35.60
2022-08-03T09:31:33.123Z,35.96
2022-08-03T09:34:05.090Z,36.27
2022-08-03T09:36:39.100Z,36.47
2022-08-03T09:39:11.887Z,36.40
2022-08-03T09:41:40.383Z,34.59
2022-08-03T09:44:08.326Z,34.53
2022-08-03T09:46:52.375Z,35.18
2022-08-03T09:49:19.054Z,35.45
2022-08-03T09:52:32.823Z,35.18
2022-08-03T09:54:32.812Z,35.89
2022-08-03T09:56:59.506Z,34.63
2022-08-03T09:59:28.716Z,34.14
2022-08-03T10:01:56.493Z,34.37
2022-08-03T10:04:23.889Z,34.13
2022-08-03T10:07:10.784Z,33.76
2022-08-03T10:09:38.178Z,33.86
2022-08-03T10:12:09.680Z,33.25
2022-08-03T10:14:38.789Z,32.95
2022-08-03T10:17:06.022Z,34.54
2022-08-03T10:19:33.713Z,33.70
2022-08-03T10:22:07.886Z,34.50
2022-08-03T10:24:36.233Z,33.67
2022-08-03T10:27:14.785Z,35.00
2022-08-03T10:29:45.943Z,34.93
2022-08-03T10:32:42.430Z,34.19
2022-08-03T10:35:21.019Z,35.13
2022-08-03T10:38:16.702Z,34.95
2022-08-03T10:40:49.343Z,34.66
2022-08-03T10:43:23.038Z,36.01
2022-08-03T10:45:50.437Z,36.47
2022-08-03T10:48:18.067Z,34.12
2022-08-03T10:50:45.366Z,34.02
2022-08-03T10:53:11.962Z,35.15
2022-08-03T10:56:02.261Z,36.97
2022-08-03T10:58:53.445Z,37.53
2022-08-03T11:01:59.839Z,35.90
2022-08-03T11:04:27.191Z,35.94
2022-08-03T11:07:16.128Z,36.03
2022-08-03T11:09:48.496Z,35.48
2022-08-03T11:12:32.765Z,37.54
2022-08-03T11:15:05.682Z,38.42
2022-08-03T11:17:33.962Z,36.12
2022-08-03T11:20:13.594Z,36.50
2022-08-03T11:23:01.009Z,34.65
2022-08-03T11:25:55.125Z,34.45
2022-08-03T11:28:31.466Z,34.55
2022-08-03T11:31:48.531Z,34.37
2022-08-03T11:34:14.064Z,34.49
2022-08-03T11:37:18.996Z,34.60
2022-08-03T11:39:47.541Z,34.41
2022-08-03T11:42:23.502Z,33.04
2022-08-03T11:44:51.032Z,33.88
2022-08-03T11:47:18.674Z,33.46
2022-08-03T11:49:51.082Z,33.95
2022-08-03T11:52:17.968Z,34.22
2022-08-03T11:54:44.981Z,34.81
2022-08-03T11:57:11.900Z,35.59
2022-08-03T11:59:38.747Z,34.45
2022-08-03T12:02:11.100Z,33.44
2022-08-03T12:05:10.008Z,34.42
2022-08-03T12:08:03.032Z,33.74
2022-08-03T12:10:33.433Z,34.35
2022-08-03T12:13:01.851Z,35.26
2022-08-03T12:15:30.199Z,35.17
2022-08-03T12:17:58.203Z,34.39
2022-08-03T12:20:34.828Z,34.80
2022-08-03T12:23:06.733Z,33.82
2022-08-03T12:25:39.265Z,34.06
2022-08-03T12:28:37.082Z,33.18
2022-08-03T12:31:09.597Z,33.92
2022-08-03T12:33:55.504Z,33.53
2022-08-03T12:36:22.167Z,33.12
2022-08-03T12:38:56.788Z,32.69
2022-08-03T12:41:52.808Z,33.57
2022-08-03T12:44:30.346Z,32.47
2022-08-03T12:47:01.110Z,32.38
2022-08-03T12:49:30.508Z,31.33
2022-08-03T12:52:04.083Z,32.81
2022-08-03T12:54:35.952Z,33.90
2022-08-03T12:57:05.520Z,34.51
2022-08-03T12:59:45.108Z,33.18
2022-08-03T13:02:24.748Z,33.45
2022-08-03T13:04:53.112Z,35.44
2022-08-03T13:07:21.129Z,34.39
2022-08-03T13:09:53.707Z,34.15
2022-08-03T13:12:25.466Z,34.43
2022-08-03T13:14:57.271Z,34.34
2022-08-03T13:17:24.295Z,35.19
2022-08-03T13:19:51.717Z,35.63
2022-08-03T13:22:24.869Z,34.56
2022-08-03T13:24:57.466Z,34.69
2022-08-03T13:28:03.388Z,36.12
2022-08-03T13:30:17.891Z,36.76
2022-08-03T13:32:58.625Z,36.13
2022-08-03T13:35:25.572Z,36.98
2022-08-03T13:37:52.137Z,36.75
2022-08-03T13:40:18.740Z,37.19
2022-08-03T13:42:50.262Z,36.94
2022-08-03T13:45:16.861Z,37.61
2022-08-03T13:47:43.343Z,36.20
2022-08-03T13:50:09.904Z,36.76
2022-08-03T13:52:37.755Z,36.43
2022-08-03T13:55:06.066Z,38.48
2022-08-03T13:58:03.905Z,36.61
2022-08-03T14:00:27.383Z,37.27
2022-08-03T14:03:06.464Z,38.21
2022-08-03T14:05:38.193Z,37.25
2022-08-03T14:08:06.844Z,37.38
2022-08-03T14:10:38.384Z,36.64
2022-08-03T14:13:05.999Z,36.00
2022-08-03T14:15:38.273Z,36.53
2022-08-03T14:18:06.879Z,36.54
2022-08-03T14:20:38.898Z,36.73
2022-08-03T14:23:15.707Z,36.60
2022-08-03T14:25:49.963Z,35.98
2022-08-03T14:28:18.587Z,36.37
2022-08-03T14:30:45.517Z,36.21
2022-08-03T14:33:12.022Z,36.33
2022-08-03T14:35:38.653Z,36.41
2022-08-03T14:38:05.199Z,36.68
2022-08-03T14:40:32.261Z,37.15
2022-08-03T14:42:58.911Z,35.21
2022-08-03T14:45:25.418Z,35.46
2022-08-03T14:50:31.856Z,34.93
2022-08-03T14:50:43.134Z,34.88
2022-08-03T14:53:12.164Z,35.12
2022-08-03T14:55:50.670Z,35.46
2022-08-03T14:58:20.933Z,35.52
2022-08-03T15:00:49.925Z,35.35
2022-08-03T15:03:17.613Z,35.90
2022-08-03T15:05:44.793Z,36.04
2022-08-03T15:08:11.340Z,35.92
2022-08-03T15:10:44.154Z,34.34
2022-08-03T15:13:13.125Z,34.15
2022-08-03T15:15:40.187Z,33.73
2022-08-03T15:18:06.992Z,35.62
2022-08-03T15:20:43.976Z,37.19
2022-08-03T15:23:12.606Z,35.77
2022-08-03T15:26:28.008Z,36.51
2022-08-03T15:28:25.770Z,36.58
2022-08-03T15:30:53.058Z,36.17
2022-08-03T15:33:20.155Z,36.55
2022-08-03T15:35:47.611Z,35.22
2022-08-03T15:38:14.296Z,36.04
2022-08-03T15:40:41.027Z,36.29
2022-08-03T15:43:07.675Z,35.50
2022-08-03T15:45:36.402Z,35.78
2022-08-03T15:48:06.928Z,35.24
2022-08-03T15:50:33.575Z,36.70
2022-08-03T15:53:00.180Z,36.62
2022-08-03T15:55:27.199Z,36.72
2022-08-03T15:59:03.690Z,36.11
2022-08-03T16:00:41.903Z,36.01
2022-08-03T16:03:09.069Z,36.01
2022-08-03T16:05:36.174Z,35.77
2022-08-03T16:08:05.050Z,36.13
2022-08-03T16:10:33.597Z,35.81
2022-08-03T16:13:00.447Z,36.15
2022-08-03T16:15:27.706Z,36.06
2022-08-03T16:17:54.354Z,36.02
2022-08-03T16:20:30.914Z,35.85
2022-08-03T16:23:10.470Z,35.74
2022-08-03T16:25:38.285Z,36.05
2022-08-03T16:28:07.788Z,35.95
2022-08-03T16:30:39.786Z,36.55
2022-08-03T16:33:06.288Z,35.17
2022-08-03T16:35:32.912Z,35.53
2022-08-03T16:37:59.551Z,35.73
2022-08-03T16:40:26.627Z,35.95
2022-08-03T16:42:53.329Z,36.85
2022-08-03T16:45:20.100Z,36.54
2022-08-03T16:47:46.643Z,36.46
2022-08-03T16:50:19.454Z,35.80
2022-08-03T16:52:48.344Z,36.81
2022-08-03T16:55:15.993Z,36.86
2022-08-03T16:58:02.994Z,38.06
2022-08-03T17:00:33.311Z,36.12
2022-08-03T17:03:04.404Z,36.10
2022-08-03T17:05:47.048Z,35.88
2022-08-03T17:08:14.170Z,36.88
2022-08-03T17:10:45.560Z,36.21
2022-08-03T17:13:22.056Z,36.83
2022-08-03T17:16:01.062Z,36.13
2022-08-03T17:18:34.055Z,35.59
2022-08-03T17:21:05.066Z,36.21
2022-08-03T17:23:37.407Z,35.59
2022-08-03T17:26:10.554Z,36.29
2022-08-03T17:28:51.806Z,36.13
2022-08-03T17:31:30.807Z,36.77
2022-08-03T17:34:04.530Z,36.46
2022-08-03T17:37:02.163Z,35.92
2022-08-03T17:39:35.771Z,35.98
2022-08-03T17:42:31.267Z,36.34
2022-08-03T17:44:57.551Z,35.42
2022-08-03T17:47:29.346Z,35.96
2022-08-03T17:50:23.344Z,35.93
2022-08-03T17:52:58.327Z,34.58
2022-08-03T17:55:54.916Z,36.03
2022-08-03T17:58:25.350Z,35.58
2022-08-03T18:01:59.226Z,34.96
2022-08-03T18:04:10.803Z,34.37
2022-08-03T18:06:56.161Z,35.12
2022-08-03T18:10:03.526Z,34.92
2022-08-03T18:12:25.068Z,34.20
2022-08-03T18:15:01.444Z,36.60
2022-08-03T18:17:58.174Z,35.30
2022-08-03T18:20:32.306Z,34.67
2022-08-03T18:23:04.826Z,35.26
2022-08-03T18:25:44.917Z,35.25
2022-08-03T18:28:18.636Z,34.56
2022-08-03T18:30:53.451Z,35.29
2022-08-03T18:34:17.195Z,35.44
2022-08-03T18:36:21.685Z,35.76
2022-08-03T18:38:51.801Z,35.75
2022-08-03T18:41:32.293Z,36.06
2022-08-03T18:44:07.982Z,36.83
2022-08-03T18:46:41.009Z,37.12
2022-08-03T18:49:18.783Z,37.67
2022-08-03T18:51:46.648Z,37.79
2022-08-03T18:54:45.882Z,38.04
2022-08-03T18:57:30.432Z,38.69
2022-08-03T19:00:42.426Z,38.38
2022-08-03T19:03:20.253Z,39.64
2022-08-03T19:06:03.019Z,39.39
2022-08-03T19:08:49.730Z,39.90
2022-08-03T19:12:13.982Z,40.19
2022-08-03T19:14:28.776Z,41.00
2022-08-03T19:17:08.651Z,41.15
2022-08-03T19:19:44.453Z,40.88
2022-08-03T19:22:15.893Z,41.40
2022-08-03T19:24:45.900Z,41.46
2022-08-03T19:27:13.596Z,41.65
2022-08-03T19:29:57.993Z,41.57
2022-08-03T19:32:31.844Z,41.40
2022-08-03T19:34:59.723Z,42.17
2022-08-03T19:37:38.006Z,41.72
2022-08-03T19:40:12.398Z,41.81
2022-08-03T19:42:44.184Z,41.95
2022-08-03T19:45:15.527Z,42.56
2022-08-03T19:47:52.958Z,42.25
2022-08-03T19:50:20.536Z,42.87
2022-08-03T19:52:48.549Z,43.09
2022-08-03T19:55:17.568Z,42.55
2022-08-03T19:57:49.270Z,43.14
2022-08-03T20:00:19.536Z,43.34
2022-08-03T20:02:46.499Z,43.22
2022-08-03T20:05:15.296Z,43.78
2022-08-03T20:07:47.496Z,42.88
2022-08-03T20:10:15.984Z,43.48
2022-08-03T20:12:44.488Z,43.89
2022-08-03T20:15:12.004Z,43.92
2022-08-03T20:17:54.498Z,44.87
2022-08-03T20:20:25.891Z,44.06
2022-08-03T20:22:57.586Z,43.87
2022-08-03T20:25:38.681Z,44.29
2022-08-03T20:28:33.331Z,44.65
2022-08-03T20:31:01.755Z,44.49
2022-08-03T20:36:17.869Z,44.65
2022-08-03T20:38:47.398Z,44.44
2022-08-03T20:41:15.740Z,44.86
2022-08-03T20:43:42.518Z,44.76
2022-08-03T20:46:29.535Z,44.75
2022-08-03T20:48:59.584Z,44.89
2022-08-03T20:51:50.263Z,45.03
2022-08-03T20:54:22.783Z,45.29
2022-08-03T20:56:58.450Z,45.12
2022-08-03T20:59:36.578Z,45.31
2022-08-03T21:02:19.585Z,44.93
2022-08-03T21:04:55.951Z,44.95
2022-08-03T21:07:24.276Z,45.12
2022-08-03T21:09:55.679Z,45.64
2022-08-03T21:12:33.066Z,46.13
2022-08-03T21:13:07.169Z,44.50
2022-08-03T21:15:04.018Z,46.91
2022-08-03T21:17:40.639Z,46.90
2022-08-03T21:20:10.217Z,46.17
2022-08-03T21:22:43.721Z,46.01
2022-08-03T21:25:13.548Z,45.83
2022-08-03T21:27:40.715Z,46.48
2022-08-03T21:30:10.290Z,46.78
2022-08-03T21:32:40.350Z,46.07
2022-08-03T21:35:11.295Z,46.87
2022-08-03T21:37:39.789Z,46.91
2022-08-03T21:40:08.417Z,46.62
2022-08-03T21:42:34.981Z,46.83
2022-08-03T21:45:06.066Z,47.31
2022-08-03T21:47:37.038Z,47.40
2022-08-03T21:50:09.837Z,47.51
2022-08-03T21:52:42.435Z,48.55
2022-08-03T21:55:18.354Z,48.33
2022-08-03T21:57:52.842Z,48.86
2022-08-03T22:00:21.602Z,48.58
2022-08-03T22:02:54.448Z,49.09
2022-08-03T22:05:28.131Z,49.40
2022-08-03T22:08:09.735Z,49.75
2022-08-03T22:10:36.876Z,49.16
2022-08-03T22:13:03.502Z,50.08
2022-08-03T22:15:30.984Z,50.50
2022-08-03T22:17:59.063Z,50.24
2022-08-03T22:20:25.843Z,50.12
2022-08-03T22:23:01.627Z,50.25
2022-08-03T22:25:31.108Z,50.60
2022-08-03T22:28:02.926Z,50.90
2022-08-03T22:30:29.898Z,50.86
2022-08-03T22:32:57.908Z,51.20
2022-08-03T22:35:26.239Z,51.13
2022-08-03T22:37:55.175Z,51.60
2022-08-03T22:40:22.182Z,51.50
2022-08-03T22:42:52.645Z,52.37
2022-08-03T22:46:06.980Z,52.46
2022-08-03T22:48:08.006Z,52.56
2022-08-03T22:50:34.915Z,51.82
2022-08-03T22:53:01.643Z,51.96
2022-08-03T22:55:28.332Z,51.89
2022-08-03T22:57:55.995Z,51.95
2022-08-03T23:00:23.449Z,51.94
2022-08-03T23:02:51.772Z,51.15
2022-08-03T23:06:01.826Z,51.20
2022-08-03T23:08:14.684Z,50.86
2022-08-03T23:10:46.788Z,51.09
2022-08-03T23:13:16.427Z,51.23
2022-08-03T23:15:47.491Z,51.81
2022-08-03T23:18:15.162Z,51.26
2022-08-03T23:20:42.526Z,50.79
2022-08-03T23:23:11.299Z,50.96
2022-08-03T23:25:41.474Z,52.12
2022-08-03T23:28:09.092Z,51.32
2022-08-03T23:30:37.343Z,51.77
2022-08-03T23:33:04.334Z,51.04
2022-08-03T23:36:28.660Z,51.20
2022-08-03T23:38:37.189Z,51.43
2022-08-03T23:41:04.851Z,51.78
2022-08-03T23:43:47.656Z,51.82
2022-08-03T23:46:20.726Z,51.29
2022-08-03T23:48:47.228Z,51.18
2022-08-03T23:51:29.556Z,51.45
2022-08-03T23:54:06.549Z,51.41
2022-08-03T23:56:43.544Z,51.62
2022-08-03T23:59:48.641Z,51.45
